sensor_id;sensor_type;location;lat;lon;timestamp;temperature;humidity
48686;DHT22;34485;51.536;3.816;2023-10-09T00:02:11;16.70;99.90
48686;DHT22;34485;51.536;3.816;2023-10-09T00:04:38;16.80;99.90
48686;DHT22;34485;51.536;3.816;2023-10-09T00:07:07;16.80;99.90
48686;DHT22;34485;51.536;3.816;2023-10-09T00:09:36;16.80;99.90
48686;DHT22;34485;51.536;3.816;2023-10-09T00:12:18;16.80;99.90
48686;DHT22;34485;51.536;3.816;2023-10-09T00:14:48;16.80;99.90
48686;DHT22;34485;51.536;3.816;2023-10-09T00:17:16;16.80;99.90
48686;DHT22;34485;51.536;3.816;2023-10-09T00:19:46;16.80;99.90
48686;DHT22;34485;51.536;3.816;2023-10-09T00:22:20;16.80;99.90
48686;DHT22;34485;51.536;3.816;2023-10-09T00:24:46;16.80;99.90
48686;DHT22;34485;51.536;3.816;2023-10-09T00:27:15;16.80;99.90
48686;DHT22;34485;51.536;3.816;2023-10-09T00:29:44;16.80;99.90
48686;DHT22;34485;51.536;3.816;2023-10-09T00:32:11;16.80;99.90
48686;DHT22;34485;51.536;3.816;2023-10-09T00:34:52;16.80;99.90
48686;DHT22;34485;51.536;3.816;2023-10-09T00:37:18;16.80;99.90
48686;DHT22;34485;51.536;3.816;2023-10-09T00:39:49;16.90;99.90
48686;DHT22;34485;51.536;3.816;2023-10-09T00:42:21;16.90;99.90
48686;DHT22;34485;51.536;3.816;2023-10-09T00:45:05;16.90;99.90
48686;DHT22;34485;51.536;3.816;2023-10-09T00:47:35;16.90;99.90
48686;DHT22;34485;51.536;3.816;2023-10-09T00:55:18;17.00;99.90
48686;DHT22;34485;51.536;3.816;2023-10-09T00:58:01;17.00;99.90
48686;DHT22;34485;51.536;3.816;2023-10-09T01:00:31;17.00;99.90
48686;DHT22;34485;51.536;3.816;2023-10-09T01:03:01;17.00;99.90
48686;DHT22;34485;51.536;3.816;2023-10-09T01:05:46;17.00;99.90
48686;DHT22;34485;51.536;3.816;2023-10-09T01:08:21;17.00;99.90
48686;DHT22;34485;51.536;3.816;2023-10-09T01:11:11;17.00;99.90
48686;DHT22;34485;51.536;3.816;2023-10-09T01:13:49;17.00;99.90
48686;DHT22;34485;51.536;3.816;2023-10-09T01:16:16;17.00;99.90
48686;DHT22;34485;51.536;3.816;2023-10-09T01:18:47;17.00;99.90
48686;DHT22;34485;51.536;3.816;2023-10-09T01:21:18;17.00;99.90
48686;DHT22;34485;51.536;3.816;2023-10-09T01:23:47;17.00;99.90
48686;DHT22;34485;51.536;3.816;2023-10-09T01:26:38;16.90;99.90
48686;DHT22;34485;51.536;3.816;2023-10-09T01:29:15;16.90;99.90
48686;DHT22;34485;51.536;3.816;2023-10-09T01:31:47;16.90;99.90
48686;DHT22;34485;51.536;3.816;2023-10-09T01:34:28;16.80;99.90
48686;DHT22;34485;51.536;3.816;2023-10-09T01:37:15;16.90;99.90
48686;DHT22;34485;51.536;3.816;2023-10-09T01:39:51;16.90;99.90
48686;DHT22;34485;51.536;3.816;2023-10-09T01:42:17;16.90;99.90
48686;DHT22;34485;51.536;3.816;2023-10-09T01:44:55;16.90;99.90
48686;DHT22;34485;51.536;3.816;2023-10-09T01:47:23;16.90;99.90
48686;DHT22;34485;51.536;3.816;2023-10-09T01:49:51;16.90;99.90
48686;DHT22;34485;51.536;3.816;2023-10-09T01:52:19;16.90;99.90
48686;DHT22;34485;51.536;3.816;2023-10-09T01:54:47;16.90;99.90
48686;DHT22;34485;51.536;3.816;2023-10-09T01:57:14;16.90;99.90
48686;DHT22;34485;51.536;3.816;2023-10-09T01:59:44;16.80;99.90
48686;DHT22;34485;51.536;3.816;2023-10-09T02:02:13;16.80;99.90
48686;DHT22;34485;51.536;3.816;2023-10-09T02:05:00;16.80;99.90
48686;DHT22;34485;51.536;3.816;2023-10-09T02:07:35;16.80;99.90
48686;DHT22;34485;51.536;3.816;2023-10-09T02:10:11;16.80;99.90
48686;DHT22;34485;51.536;3.816;2023-10-09T02:13:02;16.70;99.90
48686;DHT22;34485;51.536;3.816;2023-10-09T02:15:33;16.70;99.90
48686;DHT22;34485;51.536;3.816;2023-10-09T02:18:09;16.70;99.90
48686;DHT22;34485;51.536;3.816;2023-10-09T02:23:41;16.60;99.90
48686;DHT22;34485;51.536;3.816;2023-10-09T02:26:10;16.60;99.90
48686;DHT22;34485;51.536;3.816;2023-10-09T02:28:45;16.50;99.90
48686;DHT22;34485;51.536;3.816;2023-10-09T02:31:24;16.40;99.90
48686;DHT22;34485;51.536;3.816;2023-10-09T02:33:52;16.40;99.90
48686;DHT22;34485;51.536;3.816;2023-10-09T02:36:20;16.40;99.90
48686;DHT22;34485;51.536;3.816;2023-10-09T02:38:45;16.30;99.90
48686;DHT22;34485;51.536;3.816;2023-10-09T02:41:17;16.40;99.90
48686;DHT22;34485;51.536;3.816;2023-10-09T02:43:42;16.30;99.90
48686;DHT22;34485;51.536;3.816;2023-10-09T02:46:16;16.30;99.90
48686;DHT22;34485;51.536;3.816;2023-10-09T02:48:49;16.40;99.90
48686;DHT22;34485;51.536;3.816;2023-10-09T02:51:22;16.40;99.90
48686;DHT22;34485;51.536;3.816;2023-10-09T02:54:09;16.40;99.90
48686;DHT22;34485;51.536;3.816;2023-10-09T02:56:48;16.40;99.90
48686;DHT22;34485;51.536;3.816;2023-10-09T02:59:21;16.40;99.90
48686;DHT22;34485;51.536;3.816;2023-10-09T03:01:50;16.50;99.90
48686;DHT22;34485;51.536;3.816;2023-10-09T03:04:20;16.50;99.90
48686;DHT22;34485;51.536;3.816;2023-10-09T03:06:48;16.50;99.90
48686;DHT22;34485;51.536;3.816;2023-10-09T03:09:23;16.50;99.90
48686;DHT22;34485;51.536;3.816;2023-10-09T03:11:54;16.60;99.90
48686;DHT22;34485;51.536;3.816;2023-10-09T03:14:20;16.60;99.90
48686;DHT22;34485;51.536;3.816;2023-10-09T03:16:47;16.70;99.90
48686;DHT22;34485;51.536;3.816;2023-10-09T03:19:16;16.70;99.90
48686;DHT22;34485;51.536;3.816;2023-10-09T03:21:42;16.70;99.90
48686;DHT22;34485;51.536;3.816;2023-10-09T03:24:08;16.70;99.90
48686;DHT22;34485;51.536;3.816;2023-10-09T03:26:34;16.80;99.90
48686;DHT22;34485;51.536;3.816;2023-10-09T03:29:00;16.70;99.90
48686;DHT22;34485;51.536;3.816;2023-10-09T03:31:32;16.80;99.90
48686;DHT22;34485;51.536;3.816;2023-10-09T03:33:59;16.80;99.90
48686;DHT22;34485;51.536;3.816;2023-10-09T03:36:25;16.80;99.90
48686;DHT22;34485;51.536;3.816;2023-10-09T03:38:54;16.80;99.90
48686;DHT22;34485;51.536;3.816;2023-10-09T03:41:21;16.80;99.90
48686;DHT22;34485;51.536;3.816;2023-10-09T03:43:47;16.80;99.90
48686;DHT22;34485;51.536;3.816;2023-10-09T03:46:13;16.80;99.90
48686;DHT22;34485;51.536;3.816;2023-10-09T03:48:46;16.90;99.90
48686;DHT22;34485;51.536;3.816;2023-10-09T03:51:13;16.90;99.90
48686;DHT22;34485;51.536;3.816;2023-10-09T03:53:46;16.90;99.90
48686;DHT22;34485;51.536;3.816;2023-10-09T03:56:13;16.90;99.90
48686;DHT22;34485;51.536;3.816;2023-10-09T03:58:43;16.90;99.90
48686;DHT22;34485;51.536;3.816;2023-10-09T04:01:11;16.90;99.90
48686;DHT22;34485;51.536;3.816;2023-10-09T04:03:44;17.00;99.90
48686;DHT22;34485;51.536;3.816;2023-10-09T04:06:10;16.90;99.90
48686;DHT22;34485;51.536;3.816;2023-10-09T04:08:36;16.90;99.90
48686;DHT22;34485;51.536;3.816;2023-10-09T04:11:05;16.90;99.90
48686;DHT22;34485;51.536;3.816;2023-10-09T04:13:45;17.00;99.90
48686;DHT22;34485;51.536;3.816;2023-10-09T04:16:15;17.00;99.90
48686;DHT22;34485;51.536;3.816;2023-10-09T04:18:57;16.90;99.90
48686;DHT22;34485;51.536;3.816;2023-10-09T04:21:23;17.00;99.90
48686;DHT22;34485;51.536;3.816;2023-10-09T04:24:06;16.90;99.90
48686;DHT22;34485;51.536;3.816;2023-10-09T04:26:43;16.90;99.90
48686;DHT22;34485;51.536;3.816;2023-10-09T04:29:16;16.90;99.90
48686;DHT22;34485;51.536;3.816;2023-10-09T04:32:05;16.90;99.90
48686;DHT22;34485;51.536;3.816;2023-10-09T04:34:41;16.80;99.90
48686;DHT22;34485;51.536;3.816;2023-10-09T04:37:22;16.80;99.90
48686;DHT22;34485;51.536;3.816;2023-10-09T04:40:08;16.80;99.90
48686;DHT22;34485;51.536;3.816;2023-10-09T04:42:38;16.80;99.90
48686;DHT22;34485;51.536;3.816;2023-10-09T04:45:07;16.80;99.90
48686;DHT22;34485;51.536;3.816;2023-10-09T04:47:35;16.70;99.90
48686;DHT22;34485;51.536;3.816;2023-10-09T04:50:05;16.70;99.90
48686;DHT22;34485;51.536;3.816;2023-10-09T04:52:51;16.70;99.90
48686;DHT22;34485;51.536;3.816;2023-10-09T04:55:16;16.60;99.90
48686;DHT22;34485;51.536;3.816;2023-10-09T04:57:48;16.60;99.90
48686;DHT22;34485;51.536;3.816;2023-10-09T05:00:26;16.60;99.90
48686;DHT22;34485;51.536;3.816;2023-10-09T05:02:53;16.60;99.90
48686;DHT22;34485;51.536;3.816;2023-10-09T05:05:23;16.60;99.90
48686;DHT22;34485;51.536;3.816;2023-10-09T05:08:11;16.60;99.90
48686;DHT22;34485;51.536;3.816;2023-10-09T05:11:09;16.60;99.90
48686;DHT22;34485;51.536;3.816;2023-10-09T05:13:41;16.60;99.90
48686;DHT22;34485;51.536;3.816;2023-10-09T05:16:14;16.60;99.90
48686;DHT22;34485;51.536;3.816;2023-10-09T05:18:58;16.70;99.90
48686;DHT22;34485;51.536;3.816;2023-10-09T05:21:46;16.60;99.90
48686;DHT22;34485;51.536;3.816;2023-10-09T05:24:13;16.70;99.90
48686;DHT22;34485;51.536;3.816;2023-10-09T05:26:39;16.70;99.90
48686;DHT22;34485;51.536;3.816;2023-10-09T05:32:03;16.70;99.90
48686;DHT22;34485;51.536;3.816;2023-10-09T05:34:38;16.70;99.90
48686;DHT22;34485;51.536;3.816;2023-10-09T05:37:22;16.70;99.90
48686;DHT22;34485;51.536;3.816;2023-10-09T05:39:53;16.70;99.90
48686;DHT22;34485;51.536;3.816;2023-10-09T05:42:26;16.70;99.90
48686;DHT22;34485;51.536;3.816;2023-10-09T05:47:51;16.60;99.90
48686;DHT22;34485;51.536;3.816;2023-10-09T05:50:30;16.60;99.90
48686;DHT22;34485;51.536;3.816;2023-10-09T05:53:00;16.60;99.90
48686;DHT22;34485;51.536;3.816;2023-10-09T05:55:27;16.60;99.90
48686;DHT22;34485;51.536;3.816;2023-10-09T05:58:12;16.50;99.90
48686;DHT22;34485;51.536;3.816;2023-10-09T06:00:56;16.50;99.90
48686;DHT22;34485;51.536;3.816;2023-10-09T06:03:30;16.40;99.90
48686;DHT22;34485;51.536;3.816;2023-10-09T06:06:11;16.40;99.90
48686;DHT22;34485;51.536;3.816;2023-10-09T06:08:44;16.40;99.90
48686;DHT22;34485;51.536;3.816;2023-10-09T06:11:10;16.40;99.90
48686;DHT22;34485;51.536;3.816;2023-10-09T06:13:56;16.40;99.90
48686;DHT22;34485;51.536;3.816;2023-10-09T06:16:38;16.40;99.90
48686;DHT22;34485;51.536;3.816;2023-10-09T06:19:11;16.50;99.90
48686;DHT22;34485;51.536;3.816;2023-10-09T06:21:58;16.50;99.90
48686;DHT22;34485;51.536;3.816;2023-10-09T06:24:42;16.50;99.90
48686;DHT22;34485;51.536;3.816;2023-10-09T06:27:12;16.50;99.90
48686;DHT22;34485;51.536;3.816;2023-10-09T06:29:41;16.50;99.90
48686;DHT22;34485;51.536;3.816;2023-10-09T06:32:11;16.50;99.90
48686;DHT22;34485;51.536;3.816;2023-10-09T06:35:01;16.50;99.90
48686;DHT22;34485;51.536;3.816;2023-10-09T06:37:45;16.50;99.90
48686;DHT22;34485;51.536;3.816;2023-10-09T06:40:31;16.50;99.90
48686;DHT22;34485;51.536;3.816;2023-10-09T06:43:16;16.60;99.90
48686;DHT22;34485;51.536;3.816;2023-10-09T06:45:45;16.60;99.90
48686;DHT22;34485;51.536;3.816;2023-10-09T06:48:14;16.60;99.90
48686;DHT22;34485;51.536;3.816;2023-10-09T06:51:02;16.70;99.90
48686;DHT22;34485;51.536;3.816;2023-10-09T06:53:47;16.70;99.90
48686;DHT22;34485;51.536;3.816;2023-10-09T06:56:27;16.80;99.90
48686;DHT22;34485;51.536;3.816;2023-10-09T06:59:03;16.90;99.90
48686;DHT22;34485;51.536;3.816;2023-10-09T07:01:46;17.00;99.90
48686;DHT22;34485;51.536;3.816;2023-10-09T07:04:16;17.10;99.90
48686;DHT22;34485;51.536;3.816;2023-10-09T07:06:48;17.10;99.90
48686;DHT22;34485;51.536;3.816;2023-10-09T07:09:16;17.20;99.90
48686;DHT22;34485;51.536;3.816;2023-10-09T07:11:49;17.30;99.90
48686;DHT22;34485;51.536;3.816;2023-10-09T07:14:20;17.30;99.90
48686;DHT22;34485;51.536;3.816;2023-10-09T07:17:08;17.40;99.90
48686;DHT22;34485;51.536;3.816;2023-10-09T07:19:46;17.40;99.90
48686;DHT22;34485;51.536;3.816;2023-10-09T07:22:12;17.40;99.90
48686;DHT22;34485;51.536;3.816;2023-10-09T07:24:54;17.50;99.90
48686;DHT22;34485;51.536;3.816;2023-10-09T07:27:24;17.50;99.90
48686;DHT22;34485;51.536;3.816;2023-10-09T07:30:17;17.60;99.90
48686;DHT22;34485;51.536;3.816;2023-10-09T07:32:56;17.60;99.90
48686;DHT22;34485;51.536;3.816;2023-10-09T07:35:34;17.80;99.90
48686;DHT22;34485;51.536;3.816;2023-10-09T07:40:46;18.10;99.90
48686;DHT22;34485;51.536;3.816;2023-10-09T07:43:32;18.30;99.90
48686;DHT22;34485;51.536;3.816;2023-10-09T07:48:53;18.70;99.90
48686;DHT22;34485;51.536;3.816;2023-10-09T07:51:22;18.90;99.90
48686;DHT22;34485;51.536;3.816;2023-10-09T07:53:55;19.00;99.90
48686;DHT22;34485;51.536;3.816;2023-10-09T07:56:32;19.20;99.90
48686;DHT22;34485;51.536;3.816;2023-10-09T07:59:07;19.40;99.90
48686;DHT22;34485;51.536;3.816;2023-10-09T08:01:48;19.80;99.90
48686;DHT22;34485;51.536;3.816;2023-10-09T08:04:25;20.00;99.90
48686;DHT22;34485;51.536;3.816;2023-10-09T08:07:11;20.20;99.90
48686;DHT22;34485;51.536;3.816;2023-10-09T08:09:54;20.20;99.90
48686;DHT22;34485;51.536;3.816;2023-10-09T08:12:39;20.20;99.90
48686;DHT22;34485;51.536;3.816;2023-10-09T08:15:23;20.10;99.90
48686;DHT22;34485;51.536;3.816;2023-10-09T08:18:00;20.00;99.90
48686;DHT22;34485;51.536;3.816;2023-10-09T08:20:44;20.00;99.90
48686;DHT22;34485;51.536;3.816;2023-10-09T08:23:28;20.00;99.90
48686;DHT22;34485;51.536;3.816;2023-10-09T08:26:13;20.10;99.90
48686;DHT22;34485;51.536;3.816;2023-10-09T08:28:43;20.10;99.90
48686;DHT22;34485;51.536;3.816;2023-10-09T08:31:15;20.10;99.90
48686;DHT22;34485;51.536;3.816;2023-10-09T08:33:48;20.10;99.90
48686;DHT22;34485;51.536;3.816;2023-10-09T08:36:27;20.20;99.90
48686;DHT22;34485;51.536;3.816;2023-10-09T08:39:15;20.20;99.90
48686;DHT22;34485;51.536;3.816;2023-10-09T08:41:51;20.20;99.90
48686;DHT22;34485;51.536;3.816;2023-10-09T08:44:19;20.40;99.90
48686;DHT22;34485;51.536;3.816;2023-10-09T08:46:49;20.40;99.90
48686;DHT22;34485;51.536;3.816;2023-10-09T08:49:16;20.30;99.90
48686;DHT22;34485;51.536;3.816;2023-10-09T08:51:42;20.40;99.90
48686;DHT22;34485;51.536;3.816;2023-10-09T08:54:08;20.40;99.90
48686;DHT22;34485;51.536;3.816;2023-10-09T08:56:37;20.30;99.90
48686;DHT22;34485;51.536;3.816;2023-10-09T08:59:05;20.30;99.90
48686;DHT22;34485;51.536;3.816;2023-10-09T09:01:31;20.30;99.90
48686;DHT22;34485;51.536;3.816;2023-10-09T09:03:59;20.20;99.90
48686;DHT22;34485;51.536;3.816;2023-10-09T09:06:36;20.40;99.90
48686;DHT22;34485;51.536;3.816;2023-10-09T09:09:11;20.40;99.90
48686;DHT22;34485;51.536;3.816;2023-10-09T09:11:43;20.50;99.90
48686;DHT22;34485;51.536;3.816;2023-10-09T09:14:15;20.50;99.90
48686;DHT22;34485;51.536;3.816;2023-10-09T09:16:47;20.60;99.90
48686;DHT22;34485;51.536;3.816;2023-10-09T09:19:17;20.70;99.90
48686;DHT22;34485;51.536;3.816;2023-10-09T09:21:57;20.80;99.90
48686;DHT22;34485;51.536;3.816;2023-10-09T09:24:25;21.00;99.90
48686;DHT22;34485;51.536;3.816;2023-10-09T09:26:52;21.20;99.90
48686;DHT22;34485;51.536;3.816;2023-10-09T09:32:04;21.30;99.90
48686;DHT22;34485;51.536;3.816;2023-10-09T09:34:51;21.40;99.80
48686;DHT22;34485;51.536;3.816;2023-10-09T09:37:24;21.50;98.90
48686;DHT22;34485;51.536;3.816;2023-10-09T09:39:55;21.70;98.80
48686;DHT22;34485;51.536;3.816;2023-10-09T09:42:23;21.70;98.60
48686;DHT22;34485;51.536;3.816;2023-10-09T09:44:53;21.90;98.50
48686;DHT22;34485;51.536;3.816;2023-10-09T09:47:21;21.90;98.30
48686;DHT22;34485;51.536;3.816;2023-10-09T09:49:54;22.00;98.70
48686;DHT22;34485;51.536;3.816;2023-10-09T09:52:22;22.00;98.10
48686;DHT22;34485;51.536;3.816;2023-10-09T09:54:50;22.00;97.20
48686;DHT22;34485;51.536;3.816;2023-10-09T09:57:18;22.00;96.60
48686;DHT22;34485;51.536;3.816;2023-10-09T09:59:51;22.00;96.60
48686;DHT22;34485;51.536;3.816;2023-10-09T10:02:29;21.90;97.00
48686;DHT22;34485;51.536;3.816;2023-10-09T10:05:02;22.00;96.90
48686;DHT22;34485;51.536;3.816;2023-10-09T10:07:30;22.00;96.90
48686;DHT22;34485;51.536;3.816;2023-10-09T10:09:56;22.00;96.10
48686;DHT22;34485;51.536;3.816;2023-10-09T10:15:12;22.00;96.90
48686;DHT22;34485;51.536;3.816;2023-10-09T10:20:25;22.00;96.20
48686;DHT22;34485;51.536;3.816;2023-10-09T10:23:14;21.90;96.50
48686;DHT22;34485;51.536;3.816;2023-10-09T10:25:42;22.00;96.20
48686;DHT22;34485;51.536;3.816;2023-10-09T10:28:27;22.10;96.40
48686;DHT22;34485;51.536;3.816;2023-10-09T10:31:08;22.10;95.90
48686;DHT22;34485;51.536;3.816;2023-10-09T10:36:24;22.00;96.30
48686;DHT22;34485;51.536;3.816;2023-10-09T10:39:08;22.10;96.00
48686;DHT22;34485;51.536;3.816;2023-10-09T10:41:37;22.10;95.20
48686;DHT22;34485;51.536;3.816;2023-10-09T10:44:04;22.10;95.80
48686;DHT22;34485;51.536;3.816;2023-10-09T10:46:59;22.10;95.50
48686;DHT22;34485;51.536;3.816;2023-10-09T10:49:27;22.10;95.10
48686;DHT22;34485;51.536;3.816;2023-10-09T10:52:02;21.90;95.40
48686;DHT22;34485;51.536;3.816;2023-10-09T10:54:41;21.90;96.10
48686;DHT22;34485;51.536;3.816;2023-10-09T10:57:21;22.00;95.70
48686;DHT22;34485;51.536;3.816;2023-10-09T10:59:55;22.00;95.20
48686;DHT22;34485;51.536;3.816;2023-10-09T11:02:39;22.00;95.80
48686;DHT22;34485;51.536;3.816;2023-10-09T11:05:07;22.00;94.80
48686;DHT22;34485;51.536;3.816;2023-10-09T11:07:40;22.00;95.10
48686;DHT22;34485;51.536;3.816;2023-10-09T11:10:06;22.00;95.10
48686;DHT22;34485;51.536;3.816;2023-10-09T11:15:09;22.20;94.80
48686;DHT22;34485;51.536;3.816;2023-10-09T11:18:05;22.40;94.60
48686;DHT22;34485;51.536;3.816;2023-10-09T11:20:51;22.40;93.90
48686;DHT22;34485;51.536;3.816;2023-10-09T11:23:30;22.60;93.60
48686;DHT22;34485;51.536;3.816;2023-10-09T11:25:59;22.70;93.70
48686;DHT22;34485;51.536;3.816;2023-10-09T11:28:44;22.80;94.10
48686;DHT22;34485;51.536;3.816;2023-10-09T11:31:23;23.10;93.70
48686;DHT22;34485;51.536;3.816;2023-10-09T11:33:52;23.20;93.60
48686;DHT22;34485;51.536;3.816;2023-10-09T11:36:19;23.30;92.60
48686;DHT22;34485;51.536;3.816;2023-10-09T11:38:54;23.20;91.80
48686;DHT22;34485;51.536;3.816;2023-10-09T11:41:40;23.30;91.10
48686;DHT22;34485;51.536;3.816;2023-10-09T11:44:10;23.30;91.00
48686;DHT22;34485;51.536;3.816;2023-10-09T11:47:00;23.30;91.40
48686;DHT22;34485;51.536;3.816;2023-10-09T11:49:56;23.20;91.10
48686;DHT22;34485;51.536;3.816;2023-10-09T11:52:28;23.40;91.30
48686;DHT22;34485;51.536;3.816;2023-10-09T11:54:57;23.40;90.90
48686;DHT22;34485;51.536;3.816;2023-10-09T11:57:24;23.50;90.10
48686;DHT22;34485;51.536;3.816;2023-10-09T11:59:56;23.50;90.30
48686;DHT22;34485;51.536;3.816;2023-10-09T12:02:23;23.50;90.00
48686;DHT22;34485;51.536;3.816;2023-10-09T12:04:48;23.60;90.60
48686;DHT22;34485;51.536;3.816;2023-10-09T12:07:14;23.50;90.90
48686;DHT22;34485;51.536;3.816;2023-10-09T12:09:40;23.60;89.60
48686;DHT22;34485;51.536;3.816;2023-10-09T12:12:07;23.60;90.30
48686;DHT22;34485;51.536;3.816;2023-10-09T12:14:34;23.50;90.20
48686;DHT22;34485;51.536;3.816;2023-10-09T12:17:00;23.40;89.80
48686;DHT22;34485;51.536;3.816;2023-10-09T12:19:37;23.30;90.70
48686;DHT22;34485;51.536;3.816;2023-10-09T12:22:07;23.20;90.60
48686;DHT22;34485;51.536;3.816;2023-10-09T12:24:36;23.10;90.70
48686;DHT22;34485;51.536;3.816;2023-10-09T12:27:03;23.10;91.30
48686;DHT22;34485;51.536;3.816;2023-10-09T12:29:35;23.20;91.20
48686;DHT22;34485;51.536;3.816;2023-10-09T12:32:00;23.20;90.90
48686;DHT22;34485;51.536;3.816;2023-10-09T12:34:28;23.30;90.70
48686;DHT22;34485;51.536;3.816;2023-10-09T12:36:54;23.30;91.00
48686;DHT22;34485;51.536;3.816;2023-10-09T12:39:23;23.30;90.80
48686;DHT22;34485;51.536;3.816;2023-10-09T12:41:49;23.30;91.00
48686;DHT22;34485;51.536;3.816;2023-10-09T12:44:19;23.40;91.10
48686;DHT22;34485;51.536;3.816;2023-10-09T12:46:45;23.40;90.80
48686;DHT22;34485;51.536;3.816;2023-10-09T12:49:21;23.30;90.90
48686;DHT22;34485;51.536;3.816;2023-10-09T12:51:52;23.40;91.40
48686;DHT22;34485;51.536;3.816;2023-10-09T12:54:18;23.40;90.80
48686;DHT22;34485;51.536;3.816;2023-10-09T12:56:46;23.40;90.20
48686;DHT22;34485;51.536;3.816;2023-10-09T12:59:14;23.40;90.70
48686;DHT22;34485;51.536;3.816;2023-10-09T13:01:43;23.40;90.20
48686;DHT22;34485;51.536;3.816;2023-10-09T13:04:13;23.30;90.50
48686;DHT22;34485;51.536;3.816;2023-10-09T13:06:45;23.20;91.00
48686;DHT22;34485;51.536;3.816;2023-10-09T13:09:11;23.20;91.80
48686;DHT22;34485;51.536;3.816;2023-10-09T13:11:39;23.20;91.80
48686;DHT22;34485;51.536;3.816;2023-10-09T13:14:06;23.10;90.80
48686;DHT22;34485;51.536;3.816;2023-10-09T13:16:47;23.00;91.70
48686;DHT22;34485;51.536;3.816;2023-10-09T13:19:16;22.90;91.20
48686;DHT22;34485;51.536;3.816;2023-10-09T13:21:43;22.90;91.60
48686;DHT22;34485;51.536;3.816;2023-10-09T13:24:09;22.70;92.60
48686;DHT22;34485;51.536;3.816;2023-10-09T13:26:49;22.60;93.00
48686;DHT22;34485;51.536;3.816;2023-10-09T13:29:17;22.60;93.40
48686;DHT22;34485;51.536;3.816;2023-10-09T13:31:48;22.60;93.50
48686;DHT22;34485;51.536;3.816;2023-10-09T13:34:15;22.50;93.40
48686;DHT22;34485;51.536;3.816;2023-10-09T13:36:41;22.50;93.50
48686;DHT22;34485;51.536;3.816;2023-10-09T13:39:16;22.50;94.00
48686;DHT22;34485;51.536;3.816;2023-10-09T13:41:54;22.40;93.70
48686;DHT22;34485;51.536;3.816;2023-10-09T13:44:29;22.40;94.10
48686;DHT22;34485;51.536;3.816;2023-10-09T13:46:56;22.40;94.10
48686;DHT22;34485;51.536;3.816;2023-10-09T13:49:22;22.40;94.20
48686;DHT22;34485;51.536;3.816;2023-10-09T13:51:49;22.50;94.40
48686;DHT22;34485;51.536;3.816;2023-10-09T13:54:16;22.50;93.90
48686;DHT22;34485;51.536;3.816;2023-10-09T13:57:04;22.40;93.90
48686;DHT22;34485;51.536;3.816;2023-10-09T14:01:57;22.20;93.90
48686;DHT22;34485;51.536;3.816;2023-10-09T14:04:25;22.10;94.30
48686;DHT22;34485;51.536;3.816;2023-10-09T14:06:54;21.90;95.10
48686;DHT22;34485;51.536;3.816;2023-10-09T14:09:23;21.90;95.30
48686;DHT22;34485;51.536;3.816;2023-10-09T14:12:10;21.70;95.30
48686;DHT22;34485;51.536;3.816;2023-10-09T14:17:22;21.40;95.10
48686;DHT22;34485;51.536;3.816;2023-10-09T14:19:54;21.30;96.30
48686;DHT22;34485;51.536;3.816;2023-10-09T14:22:22;21.20;97.00
48686;DHT22;34485;51.536;3.816;2023-10-09T14:24:53;21.20;97.00
48686;DHT22;34485;51.536;3.816;2023-10-09T14:27:23;21.10;97.30
48686;DHT22;34485;51.536;3.816;2023-10-09T14:29:55;21.10;97.70
48686;DHT22;34485;51.536;3.816;2023-10-09T14:32:22;21.10;98.10
48686;DHT22;34485;51.536;3.816;2023-10-09T14:34:57;21.00;97.90
48686;DHT22;34485;51.536;3.816;2023-10-09T14:37:38;21.00;98.00
48686;DHT22;34485;51.536;3.816;2023-10-09T14:40:06;21.10;98.40
48686;DHT22;34485;51.536;3.816;2023-10-09T14:42:41;21.10;98.10
48686;DHT22;34485;51.536;3.816;2023-10-09T14:45:11;21.10;99.90
48686;DHT22;34485;51.536;3.816;2023-10-09T14:47:41;21.10;99.90
48686;DHT22;34485;51.536;3.816;2023-10-09T14:50:07;21.10;99.90
48686;DHT22;34485;51.536;3.816;2023-10-09T14:52:34;21.00;98.40
48686;DHT22;34485;51.536;3.816;2023-10-09T14:55:04;21.00;98.60
48686;DHT22;34485;51.536;3.816;2023-10-09T14:57:31;21.00;98.60
48686;DHT22;34485;51.536;3.816;2023-10-09T15:00:02;20.90;98.70
48686;DHT22;34485;51.536;3.816;2023-10-09T15:02:39;20.90;98.50
48686;DHT22;34485;51.536;3.816;2023-10-09T15:05:05;20.90;98.60
48686;DHT22;34485;51.536;3.816;2023-10-09T15:07:30;20.90;99.00
48686;DHT22;34485;51.536;3.816;2023-10-09T15:09:56;20.90;99.20
48686;DHT22;34485;51.536;3.816;2023-10-09T15:12:29;20.90;99.10
48686;DHT22;34485;51.536;3.816;2023-10-09T15:14:54;20.90;99.10
48686;DHT22;34485;51.536;3.816;2023-10-09T15:17:22;20.90;99.30
48686;DHT22;34485;51.536;3.816;2023-10-09T15:19:47;20.80;99.30
48686;DHT22;34485;51.536;3.816;2023-10-09T15:22:13;20.80;99.30
48686;DHT22;34485;51.536;3.816;2023-10-09T15:24:39;20.80;99.60
48686;DHT22;34485;51.536;3.816;2023-10-09T15:27:06;20.70;99.40
48686;DHT22;34485;51.536;3.816;2023-10-09T15:29:32;20.70;99.40
48686;DHT22;34485;51.536;3.816;2023-10-09T15:31:59;20.70;99.60
48686;DHT22;34485;51.536;3.816;2023-10-09T15:34:40;20.60;99.70
48686;DHT22;34485;51.536;3.816;2023-10-09T15:37:06;20.60;99.90
48686;DHT22;34485;51.536;3.816;2023-10-09T15:39:37;20.50;99.90
48686;DHT22;34485;51.536;3.816;2023-10-09T15:42:03;20.40;99.90
48686;DHT22;34485;51.536;3.816;2023-10-09T15:44:38;20.30;99.90
48686;DHT22;34485;51.536;3.816;2023-10-09T15:47:05;20.30;99.90
48686;DHT22;34485;51.536;3.816;2023-10-09T15:49:34;20.30;99.90
48686;DHT22;34485;51.536;3.816;2023-10-09T15:52:03;20.30;99.90
48686;DHT22;34485;51.536;3.816;2023-10-09T15:54:28;20.20;99.90
48686;DHT22;34485;51.536;3.816;2023-10-09T15:56:55;20.10;99.90
48686;DHT22;34485;51.536;3.816;2023-10-09T15:59:22;20.10;99.90
48686;DHT22;34485;51.536;3.816;2023-10-09T16:01:49;20.10;99.90
48686;DHT22;34485;51.536;3.816;2023-10-09T16:04:16;20.00;99.90
48686;DHT22;34485;51.536;3.816;2023-10-09T16:06:42;19.90;99.90
48686;DHT22;34485;51.536;3.816;2023-10-09T16:09:08;19.90;99.90
48686;DHT22;34485;51.536;3.816;2023-10-09T16:11:37;19.80;99.90
48686;DHT22;34485;51.536;3.816;2023-10-09T16:14:05;19.70;99.90
48686;DHT22;34485;51.536;3.816;2023-10-09T16:16:35;19.60;99.90
48686;DHT22;34485;51.536;3.816;2023-10-09T16:19:10;19.50;99.90
48686;DHT22;34485;51.536;3.816;2023-10-09T16:21:36;19.40;99.90
48686;DHT22;34485;51.536;3.816;2023-10-09T16:24:01;19.40;99.90
48686;DHT22;34485;51.536;3.816;2023-10-09T16:26:31;19.40;99.90
48686;DHT22;34485;51.536;3.816;2023-10-09T16:29:06;19.30;99.90
48686;DHT22;34485;51.536;3.816;2023-10-09T16:31:33;19.20;99.90
48686;DHT22;34485;51.536;3.816;2023-10-09T16:34:04;19.20;99.90
48686;DHT22;34485;51.536;3.816;2023-10-09T16:36:36;19.20;99.90
48686;DHT22;34485;51.536;3.816;2023-10-09T16:39:05;19.10;99.90
48686;DHT22;34485;51.536;3.816;2023-10-09T16:41:46;19.10;99.90
48686;DHT22;34485;51.536;3.816;2023-10-09T16:44:12;19.10;99.90